sensor_id;sensor_type;location;lat;lon;timestamp;pressure;altitude;pressure_sealevel;temperature;humidity
12471;BME280;36499;46.484;13.832;2023-12-20T00:02:23;93027.53;;;-0.97;100.00
12471;BME280;36499;46.484;13.832;2023-12-20T00:04:50;93027.56;;;-0.86;100.00
12471;BME280;36499;46.484;13.832;2023-12-20T00:07:17;93020.47;;;-0.93;100.00
12471;BME280;36499;46.484;13.832;2023-12-20T00:09:43;93008.16;;;-1.10;100.00
12471;BME280;36499;46.484;13.832;2023-12-20T00:12:10;93008.06;;;-1.09;100.00
12471;BME280;36499;46.484;13.832;2023-12-20T00:14:38;93005.41;;;-1.19;100.00
12471;BME280;36499;46.484;13.832;2023-12-20T00:17:05;92998.91;;;-1.23;100.00
12471;BME280;36499;46.484;13.832;2023-12-20T00:19:33;92993.47;;;-1.18;100.00
12471;BME280;36499;46.484;13.832;2023-12-20T00:22:00;92977.56;;;-1.10;100.00
12471;BME280;36499;46.484;13.832;2023-12-20T00:24:27;92976.31;;;-1.05;100.00
12471;BME280;36499;46.484;13.832;2023-12-20T00:26:53;92974.22;;;-1.00;100.00
12471;BME280;36499;46.484;13.832;2023-12-20T00:29:20;92970.41;;;-0.94;100.00
12471;BME280;36499;46.484;13.832;2023-12-20T00:31:48;92968.53;;;-0.92;100.00
12471;BME280;36499;46.484;13.832;2023-12-20T00:34:15;92965.09;;;-1.14;100.00
12471;BME280;36499;46.484;13.832;2023-12-20T00:36:42;92956.16;;;-1.19;100.00
12471;BME280;36499;46.484;13.832;2023-12-20T00:39:09;92947.69;;;-1.20;100.00
12471;BME280;36499;46.484;13.832;2023-12-20T00:41:36;92954.88;;;-1.25;100.00
12471;BME280;36499;46.484;13.832;2023-12-20T00:44:02;92950.94;;;-1.29;100.00
12471;BME280;36499;46.484;13.832;2023-12-20T00:46:29;92951.06;;;-1.30;100.00
12471;BME280;36499;46.484;13.832;2023-12-20T00:48:57;92955.69;;;-1.13;100.00
12471;BME280;36499;46.484;13.832;2023-12-20T00:51:24;92945.03;;;-1.29;100.00
12471;BME280;36499;46.484;13.832;2023-12-20T00:53:51;92935.53;;;-1.16;100.00
12471;BME280;36499;46.484;13.832;2023-12-20T00:56:20;92937.75;;;-1.11;100.00
12471;BME280;36499;46.484;13.832;2023-12-20T00:58:47;92940.72;;;-1.40;100.00
12471;BME280;36499;46.484;13.832;2023-12-20T01:01:14;92933.91;;;-1.51;100.00
12471;BME280;36499;46.484;13.832;2023-12-20T01:03:41;92926.03;;;-1.48;100.00
12471;BME280;36499;46.484;13.832;2023-12-20T01:06:10;92925.56;;;-1.41;100.00
12471;BME280;36499;46.484;13.832;2023-12-20T01:08:37;92922.69;;;-1.48;100.00
12471;BME280;36499;46.484;13.832;2023-12-20T01:11:04;92919.88;;;-1.67;100.00
12471;BME280;36499;46.484;13.832;2023-12-20T01:13:31;92924.63;;;-1.63;100.00
12471;BME280;36499;46.484;13.832;2023-12-20T01:15:58;92930.53;;;-1.62;100.00
12471;BME280;36499;46.484;13.832;2023-12-20T01:18:25;92922.41;;;-1.67;100.00
12471;BME280;36499;46.484;13.832;2023-12-20T01:20:51;92913.81;;;-1.77;100.00
12471;BME280;36499;46.484;13.832;2023-12-20T01:23:20;92911.88;;;-1.74;100.00
12471;BME280;36499;46.484;13.832;2023-12-20T01:25:47;92914.91;;;-1.58;100.00
12471;BME280;36499;46.484;13.832;2023-12-20T01:28:14;92919.66;;;-1.64;100.00
12471;BME280;36499;46.484;13.832;2023-12-20T01:30:41;92919.06;;;-1.68;100.00
12471;BME280;36499;46.484;13.832;2023-12-20T01:33:08;92905.78;;;-1.49;100.00
12471;BME280;36499;46.484;13.832;2023-12-20T01:35:35;92907.69;;;-1.75;100.00
12471;BME280;36499;46.484;13.832;2023-12-20T01:38:03;92909.09;;;-1.82;100.00
12471;BME280;36499;46.484;13.832;2023-12-20T01:40:31;92908.88;;;-1.68;100.00
12471;BME280;36499;46.484;13.832;2023-12-20T01:42:58;92900.41;;;-1.68;100.00
12471;BME280;36499;46.484;13.832;2023-12-20T01:45:25;92900.41;;;-1.68;100.00
12471;BME280;36499;46.484;13.832;2023-12-20T01:47:53;92892.06;;;-1.70;100.00
12471;BME280;36499;46.484;13.832;2023-12-20T01:50:20;92888.34;;;-1.77;100.00
12471;BME280;36499;46.484;13.832;2023-12-20T01:52:47;92881.66;;;-1.67;100.00
12471;BME280;36499;46.484;13.832;2023-12-20T01:55:17;92880.88;;;-1.57;100.00
12471;BME280;36499;46.484;13.832;2023-12-20T01:57:46;92878.66;;;-1.61;100.00
12471;BME280;36499;46.484;13.832;2023-12-20T02:00:14;92862.91;;;-1.66;100.00
12471;BME280;36499;46.484;13.832;2023-12-20T02:02:41;92864.53;;;-1.65;100.00
12471;BME280;36499;46.484;13.832;2023-12-20T02:05:10;92863.25;;;-1.60;100.00
12471;BME280;36499;46.484;13.832;2023-12-20T02:07:36;92851.69;;;-1.53;100.00
12471;BME280;36499;46.484;13.832;2023-12-20T02:10:04;92865.47;;;-1.55;100.00
12471;BME280;36499;46.484;13.832;2023-12-20T02:12:31;92860.38;;;-1.55;100.00
12471;BME280;36499;46.484;13.832;2023-12-20T02:14:59;92852.72;;;-1.55;100.00
12471;BME280;36499;46.484;13.832;2023-12-20T02:17:26;92852.16;;;-1.59;100.00
12471;BME280;36499;46.484;13.832;2023-12-20T02:19:54;92853.66;;;-1.56;100.00
12471;BME280;36499;46.484;13.832;2023-12-20T02:22:22;92860.13;;;-1.52;100.00
12471;BME280;36499;46.484;13.832;2023-12-20T02:24:48;92854.13;;;-1.51;100.00
12471;BME280;36499;46.484;13.832;2023-12-20T02:27:15;92849.59;;;-1.48;100.00
12471;BME280;36499;46.484;13.832;2023-12-20T02:29:44;92853.72;;;-1.35;100.00
12471;BME280;36499;46.484;13.832;2023-12-20T02:32:13;92854.53;;;-1.35;100.00
12471;BME280;36499;46.484;13.832;2023-12-20T02:34:40;92845.75;;;-1.42;100.00
12471;BME280;36499;46.484;13.832;2023-12-20T02:37:06;92843.44;;;-1.34;100.00
12471;BME280;36499;46.484;13.832;2023-12-20T02:39:35;92840.28;;;-1.37;100.00
12471;BME280;36499;46.484;13.832;2023-12-20T02:42:02;92828.81;;;-1.32;100.00
12471;BME280;36499;46.484;13.832;2023-12-20T02:44:29;92830.88;;;-1.15;100.00
12471;BME280;36499;46.484;13.832;2023-12-20T02:46:55;92824.41;;;-1.19;100.00
12471;BME280;36499;46.484;13.832;2023-12-20T02:49:22;92826.72;;;-1.27;100.00
12471;BME280;36499;46.484;13.832;2023-12-20T02:51:49;92825.34;;;-1.31;100.00
12471;BME280;36499;46.484;13.832;2023-12-20T02:54:16;92815.38;;;-1.23;100.00
12471;BME280;36499;46.484;13.832;2023-12-20T02:56:44;92824.19;;;-1.27;100.00
12471;BME280;36499;46.484;13.832;2023-12-20T02:59:11;92819.56;;;-1.44;100.00
12471;BME280;36499;46.484;13.832;2023-12-20T03:01:41;92819.91;;;-1.37;100.00
12471;BME280;36499;46.484;13.832;2023-12-20T03:04:08;92814.75;;;-1.47;100.00
12471;BME280;36499;46.484;13.832;2023-12-20T03:06:35;92817.03;;;-1.44;100.00
12471;BME280;36499;46.484;13.832;2023-12-20T03:09:02;92807.34;;;-1.61;100.00
12471;BME280;36499;46.484;13.832;2023-12-20T03:11:29;92805.34;;;-1.69;100.00
12471;BME280;36499;46.484;13.832;2023-12-20T03:13:58;92811.72;;;-1.63;100.00
12471;BME280;36499;46.484;13.832;2023-12-20T03:16:24;92798.19;;;-1.64;100.00
12471;BME280;36499;46.484;13.832;2023-12-20T03:18:51;92793.78;;;-1.62;100.00
12471;BME280;36499;46.484;13.832;2023-12-20T03:21:18;92798.06;;;-1.62;100.00
12471;BME280;36499;46.484;13.832;2023-12-20T03:23:45;92785.78;;;-1.68;100.00
12471;BME280;36499;46.484;13.832;2023-12-20T03:26:12;92793.56;;;-1.59;100.00
12471;BME280;36499;46.484;13.832;2023-12-20T03:28:39;92794.59;;;-1.50;100.00
12471;BME280;36499;46.484;13.832;2023-12-20T03:31:09;92796.28;;;-1.39;100.00
12471;BME280;36499;46.484;13.832;2023-12-20T03:33:36;92790.94;;;-1.36;100.00
12471;BME280;36499;46.484;13.832;2023-12-20T03:36:03;92787.47;;;-1.35;100.00
12471;BME280;36499;46.484;13.832;2023-12-20T03:38:30;92786.53;;;-1.34;100.00
12471;BME280;36499;46.484;13.832;2023-12-20T03:40:56;92785.16;;;-1.38;100.00
12471;BME280;36499;46.484;13.832;2023-12-20T03:43:23;92782.84;;;-1.41;100.00
12471;BME280;36499;46.484;13.832;2023-12-20T03:45:52;92778.56;;;-1.41;100.00
12471;BME280;36499;46.484;13.832;2023-12-20T03:48:20;92780.63;;;-1.35;100.00
12471;BME280;36499;46.484;13.832;2023-12-20T03:50:47;92774.72;;;-1.35;100.00
12471;BME280;36499;46.484;13.832;2023-12-20T03:53:13;92777.28;;;-1.35;100.00
12471;BME280;36499;46.484;13.832;2023-12-20T03:55:40;92768.72;;;-1.34;100.00
12471;BME280;36499;46.484;13.832;2023-12-20T03:58:07;92764.78;;;-1.38;100.00
12471;BME280;36499;46.484;13.832;2023-12-20T04:00:34;92762.03;;;-1.47;100.00
12471;BME280;36499;46.484;13.832;2023-12-20T04:03:01;92760.41;;;-1.48;100.00
12471;BME280;36499;46.484;13.832;2023-12-20T04:05:29;92758.75;;;-1.37;100.00
12471;BME280;36499;46.484;13.832;2023-12-20T04:07:56;92762.22;;;-1.38;100.00
12471;BME280;36499;46.484;13.832;2023-12-20T04:10:22;92756.44;;;-1.40;100.00
12471;BME280;36499;46.484;13.832;2023-12-20T04:12:49;92749.69;;;-1.30;100.00
12471;BME280;36499;46.484;13.832;2023-12-20T04:15:16;92747.50;;;-1.35;100.00
12471;BME280;36499;46.484;13.832;2023-12-20T04:17:43;92741.38;;;-1.43;100.00
12471;BME280;36499;46.484;13.832;2023-12-20T04:20:10;92743.38;;;-1.47;100.00
12471;BME280;36499;46.484;13.832;2023-12-20T04:22:38;92736.69;;;-1.48;100.00
12471;BME280;36499;46.484;13.832;2023-12-20T04:25:05;92735.00;;;-1.38;100.00
12471;BME280;36499;46.484;13.832;2023-12-20T04:27:32;92732.34;;;-1.36;100.00
12471;BME280;36499;46.484;13.832;2023-12-20T04:29:59;92727.34;;;-1.27;100.00
12471;BME280;36499;46.484;13.832;2023-12-20T04:32:26;92718.53;;;-1.34;100.00
12471;BME280;36499;46.484;13.832;2023-12-20T04:34:53;92713.63;;;-1.47;100.00
12471;BME280;36499;46.484;13.832;2023-12-20T04:37:20;92706.22;;;-1.50;100.00
12471;BME280;36499;46.484;13.832;2023-12-20T04:39:48;92706.78;;;-1.46;100.00
12471;BME280;36499;46.484;13.832;2023-12-20T04:42:15;92696.84;;;-1.49;100.00
12471;BME280;36499;46.484;13.832;2023-12-20T04:44:42;92695.22;;;-1.50;100.00
12471;BME280;36499;46.484;13.832;2023-12-20T04:47:09;92695.34;;;-1.52;100.00
12471;BME280;36499;46.484;13.832;2023-12-20T04:49:36;92696.72;;;-1.48;100.00
12471;BME280;36499;46.484;13.832;2023-12-20T04:52:03;92699.06;;;-1.56;100.00
12471;BME280;36499;46.484;13.832;2023-12-20T04:54:31;92686.66;;;-1.60;100.00
12471;BME280;36499;46.484;13.832;2023-12-20T04:56:59;92687.56;;;-1.50;100.00
12471;BME280;36499;46.484;13.832;2023-12-20T04:59:26;92693.84;;;-1.54;100.00
12471;BME280;36499;46.484;13.832;2023-12-20T05:01:53;92688.63;;;-1.53;100.00
12471;BME280;36499;46.484;13.832;2023-12-20T05:04:20;92688.63;;;-1.53;100.00
12471;BME280;36499;46.484;13.832;2023-12-20T05:06:47;92699.94;;;-1.89;100.00
12471;BME280;36499;46.484;13.832;2023-12-20T05:09:15;92693.94;;;-1.88;100.00
12471;BME280;36499;46.484;13.832;2023-12-20T05:11:42;92694.97;;;-1.90;100.00
12471;BME280;36499;46.484;13.832;2023-12-20T05:14:10;92695.09;;;-1.92;100.00
12471;BME280;36499;46.484;13.832;2023-12-20T05:16:37;92694.16;;;-2.02;100.00
12471;BME280;36499;46.484;13.832;2023-12-20T05:19:04;92694.38;;;-1.94;100.00
12471;BME280;36499;46.484;13.832;2023-12-20T05:21:32;92698.44;;;-1.80;100.00
12471;BME280;36499;46.484;13.832;2023-12-20T05:23:59;92695.44;;;-1.85;100.00
12471;BME280;36499;46.484;13.832;2023-12-20T05:26:26;92686.75;;;-1.83;100.00
12471;BME280;36499;46.484;13.832;2023-12-20T05:28:54;92693.38;;;-1.59;100.00
12471;BME280;36499;46.484;13.832;2023-12-20T05:31:22;92693.16;;;-1.67;100.00
12471;BME280;36499;46.484;13.832;2023-12-20T05:33:49;92691.03;;;-1.83;100.00
12471;BME280;36499;46.484;13.832;2023-12-20T05:36:16;92690.28;;;-1.74;100.00
12471;BME280;36499;46.484;13.832;2023-12-20T05:38:43;92688.09;;;-1.78;100.00
12471;BME280;36499;46.484;13.832;2023-12-20T05:41:10;92691.44;;;-1.78;100.00
12471;BME280;36499;46.484;13.832;2023-12-20T05:43:36;92687.84;;;-1.75;100.00
12471;BME280;36499;46.484;13.832;2023-12-20T05:46:03;92695.25;;;-1.61;100.00
12471;BME280;36499;46.484;13.832;2023-12-20T05:48:32;92692.91;;;-1.53;100.00
12471;BME280;36499;46.484;13.832;2023-12-20T05:50:58;92689.78;;;-1.57;100.00
12471;BME280;36499;46.484;13.832;2023-12-20T05:53:25;92686.34;;;-1.35;100.00
12471;BME280;36499;46.484;13.832;2023-12-20T05:55:52;92685.22;;;-1.42;100.00
12471;BME280;36499;46.484;13.832;2023-12-20T05:58:19;92673.59;;;-1.35;100.00
12471;BME280;36499;46.484;13.832;2023-12-20T06:00:46;92671.59;;;-1.20;100.00
12471;BME280;36499;46.484;13.832;2023-12-20T06:03:14;92657.53;;;-1.15;100.00
12471;BME280;36499;46.484;13.832;2023-12-20T06:05:42;92658.72;;;-1.19;100.00
12471;BME280;36499;46.484;13.832;2023-12-20T06:08:09;92659.41;;;-1.17;100.00
12471;BME280;36499;46.484;13.832;2023-12-20T06:10:36;92651.31;;;-1.22;100.00
12471;BME280;36499;46.484;13.832;2023-12-20T06:13:03;92653.06;;;-1.22;100.00
12471;BME280;36499;46.484;13.832;2023-12-20T06:15:32;92650.00;;;-1.16;100.00
12471;BME280;36499;46.484;13.832;2023-12-20T06:17:58;92650.38;;;-1.21;100.00
12471;BME280;36499;46.484;13.832;2023-12-20T06:20:26;92653.41;;;-1.27;100.00
12471;BME280;36499;46.484;13.832;2023-12-20T06:22:54;92648.84;;;-1.12;100.00
12471;BME280;36499;46.484;13.832;2023-12-20T06:25:21;92660.66;;;-1.11;100.00
12471;BME280;36499;46.484;13.832;2023-12-20T06:27:48;92658.09;;;-1.11;100.00
12471;BME280;36499;46.484;13.832;2023-12-20T06:30:16;92655.59;;;-1.01;100.00
12471;BME280;36499;46.484;13.832;2023-12-20T06:32:42;92649.75;;;-0.92;100.00
12471;BME280;36499;46.484;13.832;2023-12-20T06:35:09;92656.16;;;-0.77;100.00
12471;BME280;36499;46.484;13.832;2023-12-20T06:37:36;92656.28;;;-0.99;100.00
12471;BME280;36499;46.484;13.832;2023-12-20T06:40:06;92655.91;;;-0.95;100.00
12471;BME280;36499;46.484;13.832;2023-12-20T06:42:33;92660.50;;;-0.89;100.00
12471;BME280;36499;46.484;13.832;2023-12-20T06:45:00;92652.50;;;-0.84;100.00
12471;BME280;36499;46.484;13.832;2023-12-20T06:47:26;92655.97;;;-0.85;100.00
12471;BME280;36499;46.484;13.832;2023-12-20T06:49:53;92657.22;;;-0.80;100.00
12471;BME280;36499;46.484;13.832;2023-12-20T06:52:20;92660.59;;;-0.69;100.00
12471;BME280;36499;46.484;13.832;2023-12-20T06:54:47;92657.75;;;-0.76;100.00
12471;BME280;36499;46.484;13.832;2023-12-20T06:57:15;92661.03;;;-0.64;100.00
12471;BME280;36499;46.484;13.832;2023-12-20T06:59:42;92664.97;;;-0.60;100.00
12471;BME280;36499;46.484;13.832;2023-12-20T07:02:10;92670.06;;;-0.60;100.00
12471;BME280;36499;46.484;13.832;2023-12-20T07:04:39;92670.50;;;-0.76;100.00
12471;BME280;36499;46.484;13.832;2023-12-20T07:07:06;92680.34;;;-0.92;100.00
12471;BME280;36499;46.484;13.832;2023-12-20T07:09:33;92684.66;;;-0.93;100.00
12471;BME280;36499;46.484;13.832;2023-12-20T07:12:00;92689.94;;;-0.85;100.00
12471;BME280;36499;46.484;13.832;2023-12-20T07:14:28;92685.06;;;-0.67;100.00
12471;BME280;36499;46.484;13.832;2023-12-20T07:16:55;92692.41;;;-0.53;100.00
12471;BME280;36499;46.484;13.832;2023-12-20T07:19:21;92699.34;;;-0.34;100.00
12471;BME280;36499;46.484;13.832;2023-12-20T07:21:48;92703.63;;;-0.34;100.00
12471;BME280;36499;46.484;13.832;2023-12-20T07:24:15;92711.09;;;-0.22;100.00
12471;BME280;36499;46.484;13.832;2023-12-20T07:26:42;92703.31;;;-0.41;100.00
12471;BME280;36499;46.484;13.832;2023-12-20T07:29:09;92702.22;;;-0.48;100.00
12471;BME280;36499;46.484;13.832;2023-12-20T07:31:37;92711.28;;;-0.34;100.00
12471;BME280;36499;46.484;13.832;2023-12-20T07:34:04;92707.97;;;-0.25;100.00
12471;BME280;36499;46.484;13.832;2023-12-20T07:36:31;92712.69;;;-0.21;100.00
12471;BME280;36499;46.484;13.832;2023-12-20T07:38:57;92720.41;;;-0.11;100.00
12471;BME280;36499;46.484;13.832;2023-12-20T07:41:24;92719.09;;;0.04;100.00
12471;BME280;36499;46.484;13.832;2023-12-20T07:43:51;92717.31;;;0.26;100.00
12471;BME280;36499;46.484;13.832;2023-12-20T07:46:20;92719.88;;;0.26;100.00
12471;BME280;36499;46.484;13.832;2023-12-20T07:48:50;92719.28;;;0.12;100.00
12471;BME280;36499;46.484;13.832;2023-12-20T07:51:17;92716.84;;;0.11;100.00
12471;BME280;36499;46.484;13.832;2023-12-20T07:53:44;92716.09;;;0.20;100.00
12471;BME280;36499;46.484;13.832;2023-12-20T07:56:15;92707.63;;;0.39;100.00
12471;BME280;36499;46.484;13.832;2023-12-20T07:58:42;92713.00;;;0.36;100.00
12471;BME280;36499;46.484;13.832;2023-12-20T08:01:10;92706.41;;;0.33;100.00
12471;BME280;36499;46.484;13.832;2023-12-20T08:03:37;92700.78;;;0.39;100.00
12471;BME280;36499;46.484;13.832;2023-12-20T08:06:06;92701.75;;;0.48;100.00
12471;BME280;36499;46.484;13.832;2023-12-20T08:08:32;92705.13;;;0.58;100.00
12471;BME280;36499;46.484;13.832;2023-12-20T08:11:00;92715.34;;;0.68;100.00
12471;BME280;36499;46.484;13.832;2023-12-20T08:13:27;92696.53;;;0.78;100.00
12471;BME280;36499;46.484;13.832;2023-12-20T08:15:55;92688.31;;;1.04;100.00
12471;BME280;36499;46.484;13.832;2023-12-20T08:18:22;92696.13;;;1.12;100.00
12471;BME280;36499;46.484;13.832;2023-12-20T08:20:49;92704.75;;;0.92;100.00
12471;BME280;36499;46.484;13.832;2023-12-20T08:23:19;92698.69;;;0.93;100.00
12471;BME280;36499;46.484;13.832;2023-12-20T08:25:47;92695.06;;;0.85;100.00
12471;BME280;36499;46.484;13.832;2023-12-20T08:28:14;92697.63;;;0.95;100.00
12471;BME280;36499;46.484;13.832;2023-12-20T08:30:41;92710.13;;;1.08;100.00
12471;BME280;36499;46.484;13.832;2023-12-20T08:33:08;92714.28;;;1.09;100.00
12471;BME280;36499;46.484;13.832;2023-12-20T08:35:38;92712.94;;;1.05;100.00
12471;BME280;36499;46.484;13.832;2023-12-20T08:38:05;92705.81;;;1.18;100.00
12471;BME280;36499;46.484;13.832;2023-12-20T08:40:33;92699.84;;;1.37;100.00
12471;BME280;36499;46.484;13.832;2023-12-20T08:43:00;92697.81;;;1.40;100.00
12471;BME280;36499;46.484;13.832;2023-12-20T08:45:27;92702.25;;;1.48;100.00
12471;BME280;36499;46.484;13.832;2023-12-20T08:47:54;92701.84;;;1.62;100.00
12471;BME280;36499;46.484;13.832;2023-12-20T08:50:21;92711.38;;;1.70;100.00
12471;BME280;36499;46.484;13.832;2023-12-20T08:52:47;92710.00;;;1.75;100.00
12471;BME280;36499;46.484;13.832;2023-12-20T08:55:14;92708.00;;;1.69;100.00
12471;BME280;36499;46.484;13.832;2023-12-20T08:57:44;92715.81;;;1.68;100.00
12471;BME280;36499;46.484;13.832;2023-12-20T09:00:12;92722.66;;;1.77;100.00
12471;BME280;36499;46.484;13.832;2023-12-20T09:02:39;92723.19;;;1.90;100.00
12471;BME280;36499;46.484;13.832;2023-12-20T09:05:07;92727.75;;;1.96;100.00
12471;BME280;36499;46.484;13.832;2023-12-20T09:07:34;92726.75;;;2.07;100.00
12471;BME280;36499;46.484;13.832;2023-12-20T09:10:00;92725.28;;;2.04;100.00
12471;BME280;36499;46.484;13.832;2023-12-20T09:12:28;92730.78;;;2.09;100.00
12471;BME280;36499;46.484;13.832;2023-12-20T09:14:56;92734.22;;;2.28;97.61
12471;BME280;36499;46.484;13.832;2023-12-20T09:17:23;92726.72;;;2.44;95.55
12471;BME280;36499;46.484;13.832;2023-12-20T09:19:49;92732.22;;;2.49;95.10
12471;BME280;36499;46.484;13.832;2023-12-20T09:22:17;92723.03;;;2.56;94.47
12471;BME280;36499;46.484;13.832;2023-12-20T09:24:44;92721.94;;;2.58;93.85
12471;BME280;36499;46.484;13.832;2023-12-20T09:27:11;92724.34;;;2.60;93.98
12471;BME280;36499;46.484;13.832;2023-12-20T09:29:38;92718.78;;;2.65;93.92
12471;BME280;36499;46.484;13.832;2023-12-20T09:32:06;92720.59;;;2.72;93.95
12471;BME280;36499;46.484;13.832;2023-12-20T09:34:33;92710.06;;;2.75;93.72
12471;BME280;36499;46.484;13.832;2023-12-20T09:37:00;92701.41;;;2.76;92.25
12471;BME280;36499;46.484;13.832;2023-12-20T09:39:28;92695.56;;;2.84;92.74
12471;BME280;36499;46.484;13.832;2023-12-20T09:42:01;92693.06;;;2.92;92.17
12471;BME280;36499;46.484;13.832;2023-12-20T09:44:28;92695.44;;;3.03;91.21
12471;BME280;36499;46.484;13.832;2023-12-20T09:46:56;92687.47;;;3.14;90.79
12471;BME280;36499;46.484;13.832;2023-12-20T09:49:25;92679.28;;;3.11;90.88
12471;BME280;36499;46.484;13.832;2023-12-20T09:51:54;92677.00;;;3.08;89.78
12471;BME280;36499;46.484;13.832;2023-12-20T09:54:21;92672.75;;;3.16;89.18
12471;BME280;36499;46.484;13.832;2023-12-20T09:56:49;92674.50;;;3.16;89.25
12471;BME280;36499;46.484;13.832;2023-12-20T09:59:15;92676.56;;;3.12;89.95
12471;BME280;36499;46.484;13.832;2023-12-20T10:01:43;92675.75;;;3.12;88.39
12471;BME280;36499;46.484;13.832;2023-12-20T10:04:11;92675.31;;;3.16;89.02
12471;BME280;36499;46.484;13.832;2023-12-20T10:06:41;92669.06;;;3.19;87.96
12471;BME280;36499;46.484;13.832;2023-12-20T10:09:08;92669.38;;;3.16;88.05
12471;BME280;36499;46.484;13.832;2023-12-20T10:11:35;92669.66;;;3.13;88.66
12471;BME280;36499;46.484;13.832;2023-12-20T10:14:04;92658.72;;;3.11;89.03
12471;BME280;36499;46.484;13.832;2023-12-20T10:16:31;92651.91;;;3.19;86.42
12471;BME280;36499;46.484;13.832;2023-12-20T10:18:59;92656.97;;;3.29;86.45
12471;BME280;36499;46.484;13.832;2023-12-20T10:21:27;92658.66;;;3.20;87.38
12471;BME280;36499;46.484;13.832;2023-12-20T10:23:57;92662.03;;;3.21;87.50
12471;BME280;36499;46.484;13.832;2023-12-20T10:26:25;92660.72;;;3.17;89.33
12471;BME280;36499;46.484;13.832;2023-12-20T10:28:53;92661.44;;;3.27;89.51
12471;BME280;36499;46.484;13.832;2023-12-20T10:31:27;92662.53;;;3.24;90.07
12471;BME280;36499;46.484;13.832;2023-12-20T10:33:56;92662.25;;;3.10;90.90
12471;BME280;36499;46.484;13.832;2023-12-20T10:36:23;92659.63;;;3.02;90.89
12471;BME280;36499;46.484;13.832;2023-12-20T10:38:52;92658.31;;;2.98;91.98
12471;BME280;36499;46.484;13.832;2023-12-20T10:41:25;92659.13;;;2.98;93.58
12471;BME280;36499;46.484;13.832;2023-12-20T10:43:55;92652.38;;;2.97;92.47
12471;BME280;36499;46.484;13.832;2023-12-20T10:46:22;92647.53;;;2.94;92.30
12471;BME280;36499;46.484;13.832;2023-12-20T10:48:53;92643.19;;;3.12;90.02
12471;BME280;36499;46.484;13.832;2023-12-20T10:51:21;92637.00;;;3.23;88.76
12471;BME280;36499;46.484;13.832;2023-12-20T10:53:48;92630.78;;;3.25;86.11
12471;BME280;36499;46.484;13.832;2023-12-20T10:56:16;92631.50;;;3.36;87.36
12471;BME280;36499;46.484;13.832;2023-12-20T10:58:46;92618.22;;;3.48;86.10
12471;BME280;36499;46.484;13.832;2023-12-20T11:01:15;92616.66;;;3.55;85.64
12471;BME280;36499;46.484;13.832;2023-12-20T11:03:51;92603.78;;;3.47;88.43
12471;BME280;36499;46.484;13.832;2023-12-20T11:06:32;92605.31;;;3.40;87.79
12471;BME280;36499;46.484;13.832;2023-12-20T11:09:10;92606.63;;;3.44;86.55
12471;BME280;36499;46.484;13.832;2023-12-20T11:11:48;92607.34;;;3.54;86.06
12471;BME280;36499;46.484;13.832;2023-12-20T11:14:24;92606.59;;;3.62;86.86
12471;BME280;36499;46.484;13.832;2023-12-20T11:17:05;92608.91;;;3.73;86.06
12471;BME280;36499;46.484;13.832;2023-12-20T11:19:32;92601.50;;;3.78;85.03
12471;BME280;36499;46.484;13.832;2023-12-20T11:21:59;92596.56;;;3.85;85.60
12471;BME280;36499;46.484;13.832;2023-12-20T11:24:25;92592.88;;;3.87;85.00
12471;BME280;36499;46.484;13.832;2023-12-20T11:26:55;92590.31;;;3.87;85.80
12471;BME280;36499;46.484;13.832;2023-12-20T11:29:34;92588.75;;;3.95;83.88
12471;BME280;36499;46.484;13.832;2023-12-20T11:32:02;92582.81;;;3.94;83.99
12471;BME280;36499;46.484;13.832;2023-12-20T11:34:31;92581.72;;;4.05;84.15
12471;BME280;36499;46.484;13.832;2023-12-20T11:36:59;92580.56;;;3.99;84.67
12471;BME280;36499;46.484;13.832;2023-12-20T11:39:27;92580.91;;;4.04;85.66
12471;BME280;36499;46.484;13.832;2023-12-20T11:41:56;92577.69;;;4.02;84.04
12471;BME280;36499;46.484;13.832;2023-12-20T11:44:25;92569.34;;;4.08;84.04
12471;BME280;36499;46.484;13.832;2023-12-20T11:46:54;92565.84;;;4.09;83.72
12471;BME280;36499;46.484;13.832;2023-12-20T11:49:24;92566.00;;;4.16;82.64
12471;BME280;36499;46.484;13.832;2023-12-20T11:51:51;92567.41;;;4.02;85.35
12471;BME280;36499;46.484;13.832;2023-12-20T11:54:18;92557.28;;;4.01;84.93
12471;BME280;36499;46.484;13.832;2023-12-20T11:56:46;92562.56;;;3.99;85.23
12471;BME280;36499;46.484;13.832;2023-12-20T11:59:13;92559.13;;;3.82;86.48
12471;BME280;36499;46.484;13.832;2023-12-20T12:01:40;92540.84;;;3.85;84.92
12471;BME280;36499;46.484;13.832;2023-12-20T12:04:15;92541.22;;;3.99;83.34
12471;BME280;36499;46.484;13.832;2023-12-20T12:06:43;92537.53;;;4.01;81.88
12471;BME280;36499;46.484;13.832;2023-12-20T12:09:10;92539.16;;;4.10;80.95
12471;BME280;36499;46.484;13.832;2023-12-20T12:11:36;92535.19;;;4.24;81.07
12471;BME280;36499;46.484;13.832;2023-12-20T12:14:03;92537.78;;;4.40;79.84
12471;BME280;36499;46.484;13.832;2023-12-20T12:16:30;92535.03;;;4.50;79.04
12471;BME280;36499;46.484;13.832;2023-12-20T12:18:57;92539.06;;;4.52;79.90
12471;BME280;36499;46.484;13.832;2023-12-20T12:21:26;92536.50;;;4.52;80.27
12471;BME280;36499;46.484;13.832;2023-12-20T12:23:52;92546.63;;;4.54;80.40
12471;BME280;36499;46.484;13.832;2023-12-20T12:26:19;92546.16;;;4.58;81.14
12471;BME280;36499;46.484;13.832;2023-12-20T12:28:46;92546.00;;;4.60;81.95
12471;BME280;36499;46.484;13.832;2023-12-20T12:31:14;92542.31;;;4.71;81.29
12471;BME280;36499;46.484;13.832;2023-12-20T12:33:42;92541.03;;;4.75;81.37
12471;BME280;36499;46.484;13.832;2023-12-20T12:36:10;92535.06;;;4.66;83.69
12471;BME280;36499;46.484;13.832;2023-12-20T12:38:38;92531.53;;;4.67;83.52
12471;BME280;36499;46.484;13.832;2023-12-20T12:41:05;92532.16;;;4.69;81.48
12471;BME280;36499;46.484;13.832;2023-12-20T12:43:32;92527.66;;;4.71;79.41
12471;BME280;36499;46.484;13.832;2023-12-20T12:46:00;92524.25;;;4.87;82.42
12471;BME280;36499;46.484;13.832;2023-12-20T12:48:27;92527.19;;;4.76;85.39
12471;BME280;36499;46.484;13.832;2023-12-20T12:50:54;92521.22;;;4.67;88.01